Flight Track Log - Related Links

Times and Time Zones

All times are in EDT time to prevent confusion due to time zone crossing. See the JBU673 flight status page for this flight to view local times or setup timezone preferences in your user account.

Time Position Orientation Groundspeed Altitude Reporting Facility
EDT Latitude Longitude Course Direction KTS MPH feet Rate Location/Type
Thu 11:24:17 AM 40.6667 -73.7167 226° Southwest 191 220 2,100  Level New York TRACON
Thu 11:25:17 AM 40.6000 -73.6833 159° South 272 313 3,800 2,300 Climbing New York TRACON
Thu 11:26:00 AM 40.4219 -74.1173 229° Southwest  Level FlightAware Approximate
Thu 11:26:17 AM 40.5333 -73.6833 180° South 271 312 6,700  Level New York TRACON
Thu 11:27:00 AM 40.3472 -74.2325 232° Southwest  Level FlightAware Approximate
Thu 11:27:17 AM 40.4833 -73.7333 217° Southwest 255 293 8,900  Level New York TRACON
Thu 11:28:00 AM 40.2760 -74.3512 232° Southwest  Level FlightAware Approximate
Thu 11:28:17 AM 40.4667 -73.8167 255° West 259 298 10,600  Level New York TRACON
Thu 11:29:00 AM 40.2034 -74.4621 226° Southwest  Level FlightAware Approximate
Thu 11:29:17 AM 40.4167 -73.9167 237° Southwest 311 358 11,500  Level New York TRACON
Thu 11:30:41 AM 40.3678 -74.0672 247° West 316 364 13,900 1,034 Climbing New York Center
Thu 11:31:42 AM 40.3272 -74.1742 244° Southwest 330 380 14,000 900 Climbing New York Center
Thu 11:32:41 AM 40.2842 -74.2861 243° Southwest 340 391 15,700 1,462 Climbing New York Center
Thu 11:33:41 AM 40.2411 -74.4008 244° Southwest 346 398 16,900 1,140 Climbing New York Center
Thu 11:34:42 AM 40.2019 -74.5183 246° West 356 410 18,000 1,412 Climbing New York Center
Thu 11:35:40 AM 40.1897 -74.6428 263° West 366 421 19,700 1,664 Climbing New York Center
Thu 11:36:41 AM 40.1783 -74.7917 264° West 384 442 21,300 1,140 Climbing New York Center
Thu 11:37:41 AM 40.1694 -74.9294 265° West 384 442 22,000 353 Climbing New York Center
Thu 11:38:40 AM 40.1583 -75.0675 264° West 384 442 22,000 400 Level New York Center
Thu 11:39:41 AM 40.1467 -75.2081 264° West 384 442 22,800 793 Climbing New York Center
Thu 11:40:41 AM 40.1350 -75.3511 264° West 389 448 23,600 744 Climbing New York Center
Thu 11:41:42 AM 40.1231 -75.4942 264° West 389 448 24,300 793 Climbing New York Center
Thu 11:42:42 AM 40.1114 -75.6319 264° West 412 474 25,200 1,077 Climbing New York Center
Thu 11:43:39 AM 40.0989 -75.7803 264° West 418 481 26,400 1,017 Climbing New York Center
Thu 11:44:40 AM 40.0839 -75.9339 263° West 425 489 27,200 744 Climbing New York Center
Thu 11:45:40 AM 40.0706 -76.0903 264° West 430 495 27,900 843 Climbing New York Center
Thu 11:46:41 AM 40.0533 -76.2436 262° West 435 501 28,900 942 Climbing New York Center
Thu 11:47:41 AM 40.0372 -76.4050 263° West 445 512 29,800 893 Climbing New York Center
Thu 11:48:42 AM 40.0214 -76.5636 263° West 445 512 30,700 908 Climbing New York Center
Thu 11:49:40 AM 40.0053 -76.7169 262° West 439 505 31,600 661 Climbing New York Center
Thu 11:50:40 AM 39.9931 -76.8756 264° West 439 505 32,000 198 Climbing New York Center
Thu 11:51:41 AM 39.9747 -77.0286 261° West 439 505 32,000  Level New York Center
Thu 11:52:42 AM 39.9603 -77.1789 263° West 434 499 32,000  Level New York Center
Thu 11:53:42 AM 39.9519 -77.3325 266° West 429 494 32,000  Level New York Center
Thu 11:54:39 AM 39.9558 -77.4819 272° West 423 487 32,000  Level New York Center
Thu 11:55:57 AM 39.9619 -77.7011 272° West 420 483 32,000  Level Cleveland Center
Thu 11:56:57 AM 39.9678 -77.8553 273° West 420 483 32,000  Level Cleveland Center
Thu 11:57:57 AM 39.9714 -78.0094 272° West 420 483 32,000  Level Cleveland Center
Thu 11:58:57 AM 39.9767 -78.1611 273° West 420 483 32,000  Level Cleveland Center
Thu 11:59:57 AM 39.9800 -78.3181 272° West 420 483 32,000  Level Cleveland Center
Thu 12:00:57 PM 39.9831 -78.4697 272° West 420 483 32,000  Level Cleveland Center
Thu 12:01:57 PM 39.9878 -78.6267 272° West 420 483 32,000  Level Cleveland Center
Thu 12:02:57 PM 39.9903 -78.7811 271° West 425 489 32,000 50 Level Cleveland Center
Thu 12:03:57 PM 39.9928 -78.9381 271° West 425 489 32,100  Climbing Cleveland Center
Thu 12:04:57 PM 39.9992 -79.0925 273° West 425 489 32,000 -50 Descending Cleveland Center
Thu 12:05:57 PM 40.0031 -79.2469 272° West 425 489 32,000  Level Cleveland Center
Thu 12:06:57 PM 40.0047 -79.4042 271° West 430 495 32,000  Level Cleveland Center
Thu 12:07:57 PM 40.0083 -79.5586 272° West 430 495 32,000 200 Level Cleveland Center
Thu 12:08:57 PM 40.0097 -79.7131 271° West 430 495 32,400 600 Climbing Cleveland Center
Thu 12:09:57 PM 40.0128 -79.8675 272° West 430 495 33,200 800 Climbing Cleveland Center
Thu 12:10:57 PM 40.0136 -80.0167 270° West 425 489 34,000 400 Climbing Cleveland Center
Thu 12:11:57 PM 40.0142 -80.1656 270° West 420 483 34,000  Level Cleveland Center
Thu 12:12:57 PM 40.0147 -80.3147 270° West 420 483 34,000  Level Cleveland Center
Thu 12:13:57 PM 40.0169 -80.4639 271° West 420 483 34,000  Level Cleveland Center
Thu 12:14:57 PM 40.0172 -80.6156 270° West 420 483 34,000  Level Cleveland Center
Thu 12:15:57 PM 40.0192 -80.7619 271° West 420 483 34,000  Level Cleveland Center
Thu 12:16:57 PM 40.0186 -80.9139 270° West 420 483 34,000  Level Cleveland Center
Thu 12:19:22 PM 40.0119 -81.2583 269° West 416 479 34,000  Level Indianapolis Center
Thu 12:20:24 PM 40.0086 -81.4094 268° West 417 480 34,000  Level Indianapolis Center
Thu 12:21:25 PM 40.0056 -81.5767 269° West 416 479 34,000  Level Indianapolis Center
Thu 12:22:27 PM 40.0017 -81.7258 268° West 410 472 34,000 -49 Level Indianapolis Center
Thu 12:23:28 PM 39.9983 -81.8728 268° West 404 465 33,900 -49 Descending Indianapolis Center
Thu 12:24:30 PM 39.9950 -82.0194 268° West 402 463 33,900 48 Level Indianapolis Center
Thu 12:25:32 PM 39.9914 -82.1672 268° West 404 465 34,000 49 Climbing Indianapolis Center
Thu 12:26:33 PM 39.9864 -82.3417 268° West 408 470 34,000  Level Indianapolis Center
Thu 12:27:35 PM 39.9828 -82.4908 268° West 410 472 34,000  Level Indianapolis Center
Thu 12:28:36 PM 39.9781 -82.6358 268° West 402 463 34,000 -49 Level Indianapolis Center
Thu 12:29:38 PM 39.9747 -82.7833 268° West 403 464 33,900  Descending Indianapolis Center
Thu 12:30:39 PM 39.9697 -82.9297 267° West 402 463 34,000 49 Climbing Indianapolis Center
Thu 12:31:41 PM 39.9647 -83.0781 268° West 406 467 34,000  Level Indianapolis Center
Thu 12:32:42 PM 39.9625 -83.2272 269° West 409 471 34,000  Level Indianapolis Center
Thu 12:33:44 PM 39.9583 -83.3744 268° West 407 468 34,000  Level Indianapolis Center
Thu 12:34:46 PM 39.9517 -83.5456 267° West 411 473 34,000 -49 Level Indianapolis Center
Thu 12:35:47 PM 39.9453 -83.6919 267° West 410 472 33,900  Descending Indianapolis Center
Thu 12:36:49 PM 39.9400 -83.8408 267° West 409 471 34,000 49 Climbing Indianapolis Center
Thu 12:37:50 PM 39.9344 -83.9908 267° West 411 473 34,000  Level Indianapolis Center
Thu 12:38:52 PM 39.9283 -84.1408 267° West 412 474 34,000  Level Indianapolis Center
Thu 12:39:53 PM 39.9217 -84.2911 267° West 413 475 34,000  Level Indianapolis Center
Thu 12:40:55 PM 39.9169 -84.4408 268° West 411 473 34,000  Level Indianapolis Center
Thu 12:41:56 PM 39.9089 -84.5914 266° West 412 474 34,000 -49 Level Indianapolis Center
Thu 12:42:58 PM 39.9022 -84.7392 267° West 406 467 33,900 -48 Descending Indianapolis Center
Thu 12:44:00 PM 39.8947 -84.9133 267° West 410 472 33,900 48 Level Indianapolis Center
Thu 12:45:02 PM 39.8869 -85.0625 266° West 411 473 34,000 49 Climbing Indianapolis Center
Thu 12:46:03 PM 39.8783 -85.2100 266° West 408 470 34,000 -49 Level Indianapolis Center
Thu 12:47:05 PM 39.8731 -85.3589 267° West 408 470 33,900 -48 Descending Indianapolis Center
Thu 12:48:07 PM 39.8644 -85.5072 266° West 407 468 33,900 49 Level Indianapolis Center
Thu 12:49:08 PM 39.8561 -85.6567 266° West 412 474 34,000 49 Climbing Indianapolis Center
Thu 12:50:10 PM 39.8469 -85.8058 265° West 411 473 34,000  Level Indianapolis Center
Thu 12:51:12 PM 39.8386 -85.9517 266° West 410 472 34,000  Level Indianapolis Center
Thu 12:52:14 PM 39.8317 -86.0989 267° West 408 470 34,000  Level Indianapolis Center
Thu 12:53:15 PM 39.8208 -86.2722 265° West 402 463 34,000  Level Indianapolis Center
Thu 12:54:17 PM 39.8333 -86.4208 276° West 415 478 34,000 48 Level Indianapolis Center
Thu 12:55:19 PM 39.8692 -86.5692 288° West 427 491 34,100  Climbing Indianapolis Center
Thu 12:56:21 PM 39.9089 -86.7175 289° West 432 497 34,000 -48 Descending Indianapolis Center
Thu 12:57:23 PM 39.9481 -86.8650 289° West 431 496 34,000  Level Indianapolis Center
Thu 12:58:25 PM 39.9878 -87.0114 290° West 429 494 34,000  Level Indianapolis Center
Thu 12:59:27 PM 40.0267 -87.1578 289° West 427 491 34,000  Level Indianapolis Center
Thu 01:00:29 PM 40.0728 -87.3356 289° West 429 494 34,000  Level Indianapolis Center
Thu 01:01:31 PM 40.1108 -87.4839 289° West 430 495 34,000  Level Indianapolis Center
Thu 01:02:25 PM 40.1428 -87.6139 288° West 434 499 34,000  Level Chicago Center
Thu 01:03:27 PM 40.1814 -87.7633 289° West 436 502 34,000  Level Chicago Center
Thu 01:04:29 PM 40.2194 -87.9125 289° West 435 501 34,000  Level Chicago Center
Thu 01:05:31 PM 40.2572 -88.0614 288° West 432 497 34,000  Level Chicago Center
Thu 01:06:33 PM 40.3033 -88.2408 289° West 434 499 34,000  Level Chicago Center
Thu 01:07:35 PM 40.3408 -88.3908 288° West 433 498 34,000  Level Chicago Center
Thu 01:08:37 PM 40.3778 -88.5406 288° West 433 498 34,000  Level Chicago Center
Thu 01:09:39 PM 40.4144 -88.6931 288° West 437 503 34,000  Level Chicago Center
Thu 01:10:40 PM 40.4522 -88.8456 288° West 438 504 34,000  Level Chicago Center
Thu 01:11:42 PM 40.4894 -88.9975 288° West 437 503 34,000 48 Level Chicago Center
Thu 01:12:44 PM 40.5258 -89.1489 288° West 436 502 34,100  Climbing Chicago Center
Thu 01:13:46 PM 40.5692 -89.3294 288° West 433 498 34,000 -97 Descending Chicago Center
Thu 01:14:48 PM 40.6047 -89.4767 288° West 427 491 33,900  Descending Chicago Center
Thu 01:15:50 PM 40.6408 -89.6244 288° West 425 489 34,000 48 Climbing Chicago Center
Thu 01:16:52 PM 40.6767 -89.7722 288° West 425 489 34,000  Level Chicago Center
Thu 01:17:54 PM 40.7128 -89.9183 288° West 423 487 34,000  Level Chicago Center
Thu 01:18:56 PM 40.7444 -90.0897 284° West 411 473 34,000  Level Chicago Center
Thu 01:19:58 PM 40.7758 -90.2375 286° West 418 481 34,000 48 Level Chicago Center
Thu 01:21:00 PM 40.8042 -90.3764 285° West 423 487 34,100  Climbing Chicago Center
Thu 01:22:02 PM 40.8364 -90.5258 286° West 424 488 34,000 -48 Descending Chicago Center
Thu 01:23:04 PM 40.8719 -90.7011 285° West 414 476 34,000  Level Chicago Center
Thu 01:24:06 PM 40.9011 -90.8456 285° West 407 468 34,000  Level Chicago Center
Thu 01:25:08 PM 40.9311 -90.9886 286° West 405 466 34,000  Level Chicago Center
Thu 01:26:10 PM 40.9594 -91.1358 284° West 410 472 34,000  Level Chicago Center
Thu 01:27:11 PM 40.9894 -91.2828 285° West 414 476 34,000 49 Level Chicago Center
Thu 01:28:13 PM 41.0194 -91.4322 285° West 419 482 34,100  Climbing Chicago Center
Thu 01:29:15 PM 41.0481 -91.5792 285° West 415 478 34,000 -48 Descending Chicago Center
Thu 01:30:17 PM 41.0794 -91.7300 285° West 417 480 34,000  Level Chicago Center
Thu 01:31:19 PM 41.1133 -91.9089 284° West 421 484 34,000  Level Chicago Center
Thu 01:32:21 PM 41.1422 -92.0583 284° West 422 486 34,000  Level Chicago Center
Thu 01:33:23 PM 41.1711 -92.2089 284° West 424 488 34,000  Level Chicago Center
Thu 01:34:25 PM 41.2000 -92.3597 284° West 426 490 34,000  Level Chicago Center
Thu 01:35:27 PM 41.2350 -92.5425 284° West 430 495 34,000  Level Chicago Center
Thu 01:36:18 PM 41.2575 -92.6658 284° West 428 493 34,000  Level Minneapolis Center
Thu 01:38:22 PM 41.3150 -92.9719 284° West 430 495 34,000 -32 Level Minneapolis Center
Thu 01:39:23 PM 41.3425 -93.1278 283° West 434 499 33,900  Descending Minneapolis Center
Thu 01:40:25 PM 41.3775 -93.3169 284° West 441 507 34,000 48 Climbing Minneapolis Center
Thu 01:41:27 PM 41.4058 -93.4764 283° West 445 512 34,000  Level Minneapolis Center
Thu 01:43:00 PM 41.4335 -93.6762 270° West  Level FlightAware Approximate
Thu 01:44:32 PM 41.4394 -93.9556 270° West 435 501 34,000  Level Minneapolis Center
Thu 01:45:34 PM 41.4394 -94.1189 270° West 442 509 34,000  Level Minneapolis Center
Thu 01:46:48 PM 41.4386 -94.2892 270° West 446 513 34,000  Level Minneapolis Center
Thu 01:47:50 PM 41.4378 -94.5169 270° West 439 505 34,000  Level Minneapolis Center
Thu 01:48:51 PM 41.4367 -94.6806 270° West 441 507 34,000  Level Minneapolis Center
Thu 01:49:53 PM 41.4361 -94.8431 270° West 439 505 34,000  Level Minneapolis Center
Thu 01:50:55 PM 41.4361 -95.0039 270° West 435 501 34,000  Level Minneapolis Center
Thu 01:51:57 PM 41.4275 -95.1647 266° West 435 501 34,000  Level Minneapolis Center
Thu 01:52:58 PM 41.4039 -95.3256 259° West 441 507 34,000  Level Minneapolis Center
Thu 01:54:00 PM 41.3817 -95.4847 260° West 439 505 34,000  Level Minneapolis Center
Thu 01:55:02 PM 41.3558 -95.6714 260° West 441 507 34,000  Level Minneapolis Center
Thu 01:56:04 PM 41.3339 -95.8325 260° West 442 509 34,000  Level Minneapolis Center
Thu 01:57:05 PM 41.3111 -95.9933 259° West 442 509 34,000 49 Level Minneapolis Center
Thu 01:58:07 PM 41.2889 -96.1531 260° West 441 507 34,100  Climbing Minneapolis Center
Thu 01:59:09 PM 41.2661 -96.3111 259° West 436 502 34,000 -49 Descending Minneapolis Center
Thu 02:00:10 PM 41.2408 -96.4853 259° West 432 497 34,000  Level Minneapolis Center
Thu 02:01:12 PM 41.2164 -96.6403 258° West 429 494 34,000  Level Minneapolis Center
Thu 02:02:14 PM 41.1939 -96.7931 259° West 423 487 34,000  Level Minneapolis Center
Thu 02:03:16 PM 41.1703 -96.9472 259° West 425 489 34,000  Level Minneapolis Center
Thu 02:04:17 PM 41.1472 -97.1028 259° West 427 491 34,000  Level Minneapolis Center
Thu 02:05:19 PM 41.1231 -97.2583 258° West 431 496 34,000  Level Minneapolis Center
Thu 02:06:21 PM 41.0969 -97.4300 259° West 433 498 34,000  Level Minneapolis Center
Thu 02:07:22 PM 41.0719 -97.5858 258° West 433 498 34,000  Level Minneapolis Center
Thu 02:08:24 PM 41.0472 -97.7444 258° West 437 503 34,000  Level Minneapolis Center
Thu 02:09:26 PM 41.0161 -97.9386 258° West 445 512 34,000 49 Level Minneapolis Center
Thu 02:10:27 PM 40.9906 -98.0989 258° West 444 511 34,100  Climbing Minneapolis Center
Thu 02:11:29 PM 40.9642 -98.2583 258° West 443 510 34,000 -49 Descending Minneapolis Center
Thu 02:12:30 PM 40.9392 -98.4167 258° West 438 504 34,000  Level Minneapolis Center
Thu 02:13:32 PM 40.9169 -98.5536 258° West 435 501 34,000  Level Minneapolis Center
Thu 02:14:34 PM 40.8853 -98.7386 257° West 431 496 34,000  Level Minneapolis Center
Thu 02:15:47 PM 40.8592 -98.8922 257° West 429 494 34,000  Level Minneapolis Center
Thu 02:16:49 PM 40.8292 -99.0717 258° West 422 486 34,000  Level Minneapolis Center
Thu 02:17:51 PM 40.8039 -99.2192 257° West 420 483 34,000  Level Minneapolis Center
Thu 02:18:08 PM 40.7989 -99.2497 258° West 420 483 34,000  Level Denver Center
Thu 02:19:10 PM 40.7669 -99.4311 257° West 421 484 34,000  Level Denver Center
Thu 02:20:12 PM 40.7411 -99.5850 258° West 427 491 34,000 48 Level Denver Center
Thu 02:21:14 PM 40.7136 -99.7383 257° West 429 494 34,100  Climbing Denver Center
Thu 02:22:16 PM 40.6847 -99.8981 257° West 430 495 34,000 -49 Descending Denver Center
Thu 02:23:17 PM 40.6583 -100.0444 257° West 429 494 34,000  Level Denver Center
Thu 02:24:19 PM 40.6264 -100.2156 256° West 430 495 34,000  Level Denver Center
Thu 02:25:21 PM 40.5994 -100.3650 257° West 433 498 34,000  Level Denver Center
Thu 02:26:23 PM 40.5678 -100.5383 257° West 434 499 34,000  Level Denver Center
Thu 02:27:25 PM 40.5392 -100.6883 256° West 436 502 34,000  Level Denver Center
Thu 02:28:27 PM 40.5108 -100.8383 256° West 439 505 34,000  Level Denver Center
Thu 02:29:29 PM 40.4781 -101.0133 256° West 440 506 34,000  Level Denver Center
Thu 02:30:31 PM 40.4503 -101.1636 256° West 440 506 34,000  Level Denver Center
Thu 02:31:32 PM 40.4167 -101.3397 256° West 444 511 34,000  Level Denver Center
Thu 02:32:34 PM 40.3881 -101.4883 256° West 441 507 34,000  Level Denver Center
Thu 02:33:36 PM 40.3531 -101.6647 255° West 446 513 34,000  Level Denver Center
Thu 02:34:38 PM 40.3247 -101.8150 256° West 445 512 34,000  Level Denver Center
Thu 02:35:40 PM 40.2956 -101.9650 256° West 446 513 34,000  Level Denver Center
Thu 02:36:42 PM 40.2581 -102.1378 254° West 445 512 34,000  Level Denver Center
Thu 02:37:43 PM 40.2278 -102.2869 255° West 446 513 34,000  Level Denver Center
Thu 02:38:45 PM 40.1936 -102.4594 256° West 439 505 34,000  Level Denver Center
Thu 02:39:47 PM 40.1619 -102.6086 255° West 442 509 34,000  Level Denver Center
Thu 02:40:49 PM 40.1286 -102.7728 255° West 443 510 34,000  Level Denver Center
Thu 02:41:51 PM 40.0961 -102.9281 255° West 441 507 34,000  Level Denver Center
Thu 02:42:53 PM 40.0644 -103.0836 255° West 439 505 34,000  Level Denver Center
Thu 02:43:55 PM 40.0311 -103.2381 254° West 439 505 34,000  Level Denver Center
Thu 02:44:56 PM 39.9925 -103.4181 254° West 440 506 34,000  Level Denver Center
Thu 02:45:58 PM 39.9597 -103.5742 255° West 443 510 34,000  Level Denver Center
Thu 02:47:12 PM 39.9261 -103.7294 254° West 444 511 34,000  Level Denver Center
Thu 02:48:14 PM 39.8872 -103.9142 255° West 447 514 34,000 48 Level Denver Center
Thu 02:49:16 PM 39.8528 -104.0692 254° West 440 506 34,100  Climbing Denver Center
Thu 02:50:18 PM 39.8189 -104.2203 254° West 431 496 34,000 -48 Descending Denver Center
Thu 02:51:20 PM 39.7792 -104.3992 254° West 431 496 34,000  Level Denver Center
Thu 02:52:22 PM 39.7447 -104.5489 253° West 432 497 34,000  Level Denver Center
Thu 02:53:24 PM 39.7100 -104.6975 253° West 430 495 34,000  Level Denver Center
Thu 02:54:26 PM 39.6772 -104.8456 254° West 421 484 34,000  Level Denver Center
Thu 02:55:28 PM 39.6428 -104.9961 253° West 433 498 34,000  Level Denver Center
Thu 02:56:41 PM 39.6017 -105.1747 253° West 437 503 34,000  Level Denver Center
Thu 02:57:44 PM 39.5608 -105.3486 253° West 430 495 34,000  Level Denver Center
Thu 02:58:46 PM 39.5253 -105.4997 253° West 430 495 34,000  Level Denver Center
Thu 02:59:48 PM 39.4903 -105.6475 253° West 427 491 34,000  Level Denver Center
Thu 03:00:51 PM 39.4533 -105.7961 252° West 431 496 34,000  Level Denver Center
Thu 03:01:53 PM 39.4161 -105.9728 255° West 432 497 34,000 49 Level Denver Center
Thu 03:02:54 PM 39.3892 -106.0769 252° West 448 516 34,100 49 Climbing Denver Center
Thu 03:03:56 PM 39.3422 -106.2744 253° West 450 518 34,100 -48 Level Denver Center
Thu 03:04:58 PM 39.3006 -106.4450 253° West 447 514 34,000  Descending Denver Center
Thu 03:06:00 PM 39.2642 -106.5933 252° West 450 518 34,100  Climbing Denver Center
Thu 03:07:02 PM 39.2225 -106.7642 253° West 447 514 34,000 -48 Descending Denver Center
Thu 03:08:04 PM 39.1856 -106.9072 252° West 441 507 34,000  Level Denver Center
Thu 03:09:06 PM 39.1442 -107.0775 253° West 443 510 34,000  Level Denver Center
Thu 03:10:08 PM 39.1081 -107.2222 252° West 443 510 34,000  Level Denver Center
Thu 03:11:09 PM 39.0703 -107.3658 251° West 443 510 34,000  Level Denver Center
Thu 03:12:11 PM 39.0278 -107.5347 252° West 444 511 34,000  Level Denver Center
Thu 03:13:13 PM 38.9919 -107.6769 252° West 439 505 34,000  Level Denver Center
Thu 03:14:15 PM 38.9481 -107.8444 251° West 440 506 34,000 48 Level Denver Center
Thu 03:15:17 PM 38.9111 -107.9878 252° West 440 506 34,100  Climbing Denver Center
Thu 03:16:18 PM 38.8675 -108.1533 251° West 438 504 34,000 -49 Descending Denver Center
Thu 03:17:20 PM 38.8308 -108.2942 252° West 435 501 34,000  Level Denver Center
Thu 03:18:22 PM 38.7939 -108.4353 251° West 435 501 34,000  Level Denver Center
Thu 03:19:24 PM 38.7503 -108.5981 251° West 432 497 34,000  Level Denver Center
Thu 03:20:26 PM 38.7136 -108.7364 251° West 427 491 34,000  Level Denver Center
Thu 03:21:27 PM 38.6700 -108.8989 251° West 431 496 34,000  Level Denver Center
Thu 03:22:29 PM 38.6325 -109.0389 251° West 434 499 34,000  Level Denver Center
Thu 03:23:30 PM 38.6014 -109.1553 251° West 433 498 34,000  Level Denver Center
Thu 03:24:33 PM 38.5503 -109.3406 251° West 432 497 34,000  Level Denver Center
Thu 03:25:34 PM 38.5114 -109.4806 250° West 434 499 34,000  Level Denver Center
Thu 03:26:36 PM 38.4667 -109.6425 251° West 433 498 34,000  Level Denver Center
Thu 03:27:38 PM 38.4283 -109.7800 250° West 430 495 34,000  Level Denver Center
Thu 03:28:40 PM 38.3833 -109.9394 250° West 428 493 34,000  Level Denver Center
Thu 03:29:42 PM 38.3447 -110.0764 250° West 429 494 34,000  Level Denver Center
Thu 03:30:43 PM 38.3064 -110.2128 250° West 427 491 34,000  Level Denver Center
Thu 03:31:45 PM 38.2611 -110.3692 250° West 424 488 34,000  Level Denver Center
Thu 03:32:47 PM 38.2233 -110.5031 250° West 420 483 34,000  Level Denver Center
Thu 03:33:49 PM 38.1786 -110.6600 250° West 423 487 34,000  Level Denver Center
Thu 03:34:54 PM 38.1328 -110.8167 250° West 423 487 34,000  Level Salt Lake Center
Thu 03:35:52 PM 38.0975 -110.9339 249° West 420 483 34,000  Level Denver Center
Thu 03:36:54 PM 38.0572 -111.0728 250° West 421 484 34,000  Level Denver Center
Thu 03:37:59 PM 38.0092 -111.2378 250° West 416 479 34,000  Level Salt Lake Center
Thu 03:38:58 PM 37.9692 -111.3750 250° West 417 480 34,000  Level Denver Center
Thu 03:40:03 PM 37.9300 -111.5147 250° West 420 483 34,000  Level Salt Lake Center
Thu 03:41:05 PM 37.8875 -111.6494 248° West 414 476 34,000  Level Salt Lake Center
Thu 03:42:07 PM 37.8450 -111.7875 249° West 419 482 34,000  Level Salt Lake Center
Thu 03:43:08 PM 37.7956 -111.9536 249° West 422 486 34,000  Level Salt Lake Center
Thu 03:44:11 PM 37.7536 -112.0919 249° West 423 487 34,000 48 Level Salt Lake Center
Thu 03:45:12 PM 37.7106 -112.2319 249° West 427 491 34,100  Climbing Salt Lake Center
Thu 03:46:14 PM 37.6525 -112.3603 240° Southwest 423 487 34,000 -48 Descending Salt Lake Center
Thu 03:47:16 PM 37.5761 -112.4797 231° Southwest 431 496 34,000  Level Salt Lake Center
Thu 03:48:18 PM 37.5003 -112.5992 231° Southwest 433 498 34,000  Level Salt Lake Center
Thu 03:49:19 PM 37.4239 -112.7181 231° Southwest 431 496 34,000  Level Salt Lake Center
Thu 03:50:21 PM 37.3481 -112.8358 231° Southwest 429 494 34,000  Level Salt Lake Center
Thu 03:51:23 PM 37.2714 -112.9531 231° Southwest 429 494 34,000  Level Salt Lake Center
Thu 03:52:25 PM 37.1814 -113.0922 231° Southwest 427 491 34,000  Level Salt Lake Center
Thu 03:52:59 PM 37.1503 -113.1383 230° Southwest 427 491 34,000  Level Los Angeles Center
Thu 03:53:26 PM 37.1058 -113.2086 232° Southwest 429 494 34,000  Level Salt Lake Center
Thu 03:54:01 PM 37.0603 -113.2764 230° Southwest 426 490 34,000  Level Los Angeles Center
Thu 03:55:03 PM 36.9842 -113.3917 230° Southwest 429 494 34,000  Level Los Angeles Center
Thu 03:56:05 PM 36.9108 -113.5058 231° Southwest 425 489 34,000  Level Los Angeles Center
Thu 03:57:07 PM 36.8353 -113.6186 230° Southwest 424 488 34,000  Level Los Angeles Center
Thu 03:58:09 PM 36.7603 -113.7306 230° Southwest 422 486 34,000  Level Los Angeles Center
Thu 03:59:11 PM 36.6858 -113.8425 230° Southwest 421 484 34,000  Level Los Angeles Center
Thu 04:00:14 PM 36.5972 -113.9758 230° Southwest 418 481 34,000  Level Los Angeles Center
Thu 04:01:16 PM 36.5222 -114.0850 229° Southwest 417 480 34,000  Level Los Angeles Center
Thu 04:02:18 PM 36.4453 -114.2008 230° Southwest 417 480 34,000  Level Los Angeles Center
Thu 04:03:20 PM 36.3717 -114.3125 231° Southwest 417 480 34,000  Level Los Angeles Center
Thu 04:04:22 PM 36.2964 -114.4208 229° Southwest 415 478 34,000  Level Los Angeles Center
Thu 04:05:24 PM 36.2231 -114.5319 231° Southwest 415 478 34,000  Level Los Angeles Center
Thu 04:06:26 PM 36.1469 -114.6422 229° Southwest 418 481 34,000  Level Los Angeles Center
Thu 04:07:28 PM 36.0717 -114.7528 230° Southwest 419 482 34,000  Level Los Angeles Center
Thu 04:08:31 PM 35.9794 -114.8881 230° Southwest 424 488 34,000  Level Los Angeles Center
Thu 04:09:33 PM 35.8981 -114.9964 227° Southwest 427 491 34,000  Level Los Angeles Center
Thu 04:10:35 PM 35.8167 -115.1064 228° Southwest 432 497 34,000  Level Los Angeles Center
Thu 04:11:37 PM 35.7350 -115.2156 227° Southwest 432 497 34,000  Level Los Angeles Center
Thu 04:12:39 PM 35.6547 -115.3269 228° Southwest 432 497 34,000  Level Los Angeles Center
Thu 04:13:41 PM 35.5744 -115.4361 228° Southwest 428 493 34,000  Level Los Angeles Center
Thu 04:14:43 PM 35.4933 -115.5442 227° Southwest 428 493 34,000  Level Los Angeles Center
Thu 04:15:45 PM 35.4067 -115.6606 228° Southwest 425 489 34,000  Level Los Angeles Center
Thu 04:16:48 PM 35.3275 -115.7678 228° Southwest 424 488 34,000  Level Los Angeles Center
Thu 04:17:50 PM 35.2464 -115.8728 227° Southwest 423 487 34,000  Level Los Angeles Center
Thu 04:18:52 PM 35.1508 -115.9989 227° Southwest 422 486 34,000  Level Los Angeles Center
Thu 04:19:54 PM 35.0697 -116.1053 227° Southwest 426 490 34,000  Level Los Angeles Center
Thu 04:20:56 PM 34.9883 -116.2114 227° Southwest 427 491 34,000 -387 Level Los Angeles Center
Thu 04:21:58 PM 34.9047 -116.3175 226° Southwest 431 496 33,200 -1,742 Descending Los Angeles Center
Thu 04:23:00 PM 34.8231 -116.4244 227° Southwest 431 496 30,400 -1,776 Descending Los Angeles Center
Thu 04:24:03 PM 34.7353 -116.5192 222° Southwest 425 489 29,500 -1,200 Descending Los Angeles Center
Thu 04:25:05 PM 34.6406 -116.6069 217° Southwest 426 490 27,900 -2,081 Descending Los Angeles Center
Thu 04:26:07 PM 34.5294 -116.7139 218° Southwest 423 487 25,200 -1,887 Descending Los Angeles Center
Thu 04:27:09 PM 34.4358 -116.7989 217° Southwest 420 483 24,000 -774 Descending Los Angeles Center
Thu 04:28:11 PM 34.3450 -116.8847 218° Southwest 415 478 23,600 -1,306 Descending Los Angeles Center
Thu 04:29:13 PM 34.2542 -116.9700 218° Southwest 413 475 21,300 -2,177 Descending Los Angeles Center
Thu 04:30:15 PM 34.1656 -117.0533 218° Southwest 408 470 19,100 -1,645 Descending Los Angeles Center
Thu 04:31:17 PM 34.0839 -117.1600 227° Southwest 387 445 17,900 -1,344 Descending Los Angeles Center
Thu 04:32:20 PM 34.0456 -117.2678 247° West 368 423 16,300 -1,536 Descending Los Angeles Center
Thu 04:33:22 PM 34.0353 -117.3803 264° West 339 390 14,700 -1,597 Descending Los Angeles Center
Thu 04:34:24 PM 34.0292 -117.4961 266° West 347 399 13,000 -1,597 Descending Los Angeles Center
Thu 04:35:26 PM 34.0319 -117.6056 272° West 330 380 11,400 -1,623 Descending Los Angeles Center
Thu 04:36:26 PM 34.0167 -117.7167 261° West 265 305 9,700 -1,524 Descending Southern California TRACON
Thu 04:37:32 PM 34.0167 -117.8167 270° West 277 319 8,200 -1,350 Descending Southern California TRACON
Thu 04:38:26 PM 34.0000 -117.9000 256° West 271 312 7,000 -1,148 Descending Southern California TRACON
Thu 04:39:27 PM 34.0000 -117.9833 270° West 265 305 6,000 -1,289 Descending Southern California TRACON
Thu 04:40:27 PM 33.9833 -118.0833 259° West 265 305 4,400 -1,050 Descending Southern California TRACON
Thu 04:41:27 PM 33.9833 -118.1667 270° West 243 280 3,900 -800 Descending Southern California TRACON
Thu 04:42:27 PM 33.9667 -118.2333 253° West 238 274 2,800 -1,096 Descending Southern California TRACON
Thu 04:43:22 PM 33.9667 -118.3000 270° West 198 228 1,800 -1,026 Descending Southern California TRACON
Thu 04:43:43 PM 33.9603 -118.3200 249° West 217 250 1,500 -723 Descending Los Angeles Center
Thu 04:44:45 PM 33.9572 -118.3667 265° West 168 193 800 -677 Descending Los Angeles Center
Thu 04:45:47 PM 33.9519 -118.4083 261° West 143 165 100 -677 Descending Los Angeles Center
Thu 04:47:00 PM 33.9425 -118.4081 180° South  Level Estimated
Thu 04:54:00 PM 33.9425 -118.4081 180° South  Level Estimated

Login

Don't have an account? Register now (free) for customized features, flight alerts, and more!